createdAt,value
2018-01-13T00:00:02.152Z,117.00
2018-01-13T00:02:30.712Z,102.67
2018-01-13T00:04:59.186Z,112.57
2018-01-13T00:07:27.797Z,108.10
2018-01-13T00:09:56.430Z,106.03
2018-01-13T00:12:25.084Z,102.90
2018-01-13T00:14:53.855Z,97.23
2018-01-13T00:17:22.684Z,98.63
2018-01-13T00:19:51.621Z,89.00
2018-01-13T00:22:20.281Z,101.73
2018-01-13T00:24:49.229Z,107.67
2018-01-13T00:27:18.061Z,108.50
2018-01-13T00:29:46.687Z,105.53
2018-01-13T00:32:15.476Z,107.77
2018-01-13T00:34:44.021Z,107.13
2018-01-13T00:37:12.591Z,96.87
2018-01-13T00:39:41.469Z,95.80
2018-01-13T00:42:10.228Z,90.00
2018-01-13T00:44:38.870Z,90.43
2018-01-13T00:47:07.418Z,88.80
2018-01-13T00:49:35.994Z,95.77
2018-01-13T00:52:04.885Z,92.50
2018-01-13T00:54:33.568Z,98.00
2018-01-13T00:57:02.230Z,84.80
2018-01-13T00:59:31.039Z,90.20
2018-01-13T01:01:59.633Z,99.37
2018-01-13T01:04:28.288Z,99.20
2018-01-13T01:06:57.037Z,98.90
2018-01-13T01:09:26.284Z,97.13
2018-01-13T01:11:55.228Z,96.63
2018-01-13T01:14:24.385Z,95.77
2018-01-13T01:16:53.212Z,94.17
2018-01-13T01:19:21.987Z,100.53
2018-01-13T01:21:50.531Z,91.27
2018-01-13T01:24:19.112Z,100.00
2018-01-13T01:26:53.948Z,98.37
2018-01-13T01:29:22.818Z,95.77
2018-01-13T01:31:51.378Z,93.53
2018-01-13T01:34:20.020Z,88.40
2018-01-13T01:36:48.816Z,91.30
2018-01-13T01:39:17.484Z,86.47
2018-01-13T01:41:46.251Z,93.33
2018-01-13T01:44:14.939Z,81.00
2018-01-13T01:46:43.501Z,95.07
2018-01-13T01:49:12.208Z,89.90
2018-01-13T01:51:40.834Z,84.93
2018-01-13T01:54:09.478Z,89.33
2018-01-13T01:56:39.597Z,85.40
2018-01-13T01:59:08.742Z,88.50
2018-01-13T02:01:37.645Z,92.27
2018-01-13T02:04:06.483Z,93.30
2018-01-13T02:06:37.351Z,88.20
2018-01-13T02:09:06.350Z,99.03
2018-01-13T02:11:34.964Z,81.83
2018-01-13T02:14:10.038Z,88.00
2018-01-13T02:16:38.952Z,80.93
2018-01-13T02:19:07.820Z,98.50
2018-01-13T02:21:36.518Z,89.53
2018-01-13T02:24:05.035Z,87.13
2018-01-13T02:26:33.718Z,83.10
2018-01-13T02:29:02.194Z,92.33
2018-01-13T02:31:31.054Z,88.40
2018-01-13T02:33:59.544Z,91.10
2018-01-13T02:36:28.042Z,89.53
2018-01-13T02:38:56.558Z,92.93
2018-01-13T02:41:25.110Z,88.70
2018-01-13T02:43:53.728Z,91.83
2018-01-13T02:46:22.731Z,95.10
2018-01-13T02:48:51.175Z,96.17
2018-01-13T02:51:19.832Z,100.00
2018-01-13T02:53:48.312Z,91.67
2018-01-13T02:56:16.895Z,96.13
2018-01-13T02:58:45.396Z,93.27
2018-01-13T03:01:14.077Z,93.80
2018-01-13T03:03:42.559Z,90.13
2018-01-13T03:06:14.138Z,92.37
2018-01-13T03:08:42.748Z,94.23
2018-01-13T03:11:11.259Z,100.83
2018-01-13T03:13:40.100Z,87.57
2018-01-13T03:16:09.135Z,95.37
2018-01-13T03:18:37.632Z,96.90
2018-01-13T03:21:06.182Z,101.53
2018-01-13T03:23:34.879Z,103.30
2018-01-13T03:26:03.407Z,106.60
2018-01-13T03:28:31.909Z,93.30
2018-01-13T03:31:00.440Z,110.80
2018-01-13T03:33:29.528Z,96.20
2018-01-13T03:35:58.452Z,105.80
2018-01-13T03:38:27.334Z,104.73
2018-01-13T03:40:56.224Z,102.70
2018-01-13T03:43:25.115Z,105.33
2018-01-13T03:45:54.219Z,106.37
2018-01-13T03:48:22.843Z,99.60
2018-01-13T03:50:51.343Z,108.30
2018-01-13T03:53:19.834Z,106.53
2018-01-13T03:55:48.423Z,110.80
2018-01-13T03:58:16.902Z,114.77
2018-01-13T04:00:45.392Z,111.47
2018-01-13T04:03:14.200Z,108.73
2018-01-13T04:05:42.863Z,119.70
2018-01-13T04:08:11.432Z,119.67
2018-01-13T04:10:40.230Z,110.93
2018-01-13T04:13:08.736Z,104.13
2018-01-13T04:15:37.255Z,106.40
2018-01-13T04:18:05.782Z,116.03
2018-01-13T04:20:34.794Z,109.60
2018-01-13T04:23:03.319Z,107.90
2018-01-13T04:25:31.821Z,113.63
2018-01-13T04:28:00.500Z,107.93
2018-01-13T04:30:29.044Z,109.40
2018-01-13T04:32:57.759Z,103.63
2018-01-13T04:35:26.306Z,98.33
2018-01-13T04:37:54.826Z,101.60
2018-01-13T04:40:23.439Z,107.83
2018-01-13T04:42:52.293Z,104.70
2018-01-13T04:45:20.953Z,100.03
2018-01-13T04:47:49.684Z,101.17
2018-01-13T04:50:18.533Z,96.73
2018-01-13T04:52:47.041Z,98.77
2018-01-13T04:55:15.682Z,102.43
2018-01-13T04:57:44.754Z,99.10
2018-01-13T05:03:19.829Z,88.50
2018-01-13T05:05:49.305Z,104.53
2018-01-13T05:08:18.097Z,98.87
2018-01-13T05:10:47.263Z,87.10
2018-01-13T05:13:16.181Z,94.53
2018-01-13T05:15:46.885Z,98.33
2018-01-13T05:18:15.923Z,95.23
2018-01-13T05:20:44.926Z,92.63
2018-01-13T05:23:13.790Z,96.90
2018-01-13T05:25:43.082Z,86.87
2018-01-13T05:28:12.210Z,91.50
2018-01-13T05:30:41.720Z,102.53
2018-01-13T05:33:10.819Z,93.53
2018-01-13T05:35:39.902Z,86.57
2018-01-13T05:38:08.802Z,93.30
2018-01-13T05:40:37.855Z,92.63
2018-01-13T05:43:06.794Z,89.40
2018-01-13T05:45:36.102Z,91.00
2018-01-13T05:48:05.179Z,86.47
2018-01-13T05:50:34.487Z,83.53
2018-01-13T05:53:03.948Z,86.07
2018-01-13T05:55:33.088Z,81.90
2018-01-13T05:58:01.889Z,77.37
2018-01-13T06:00:32.031Z,79.20
2018-01-13T06:03:01.035Z,84.90
2018-01-13T06:05:30.678Z,79.33
2018-01-13T06:07:59.329Z,85.67
2018-01-13T06:10:28.381Z,76.90
2018-01-13T06:12:57.209Z,76.60
2018-01-13T06:15:26.356Z,77.77
2018-01-13T06:17:55.828Z,80.67
2018-01-13T06:20:24.702Z,73.70
2018-01-13T06:22:54.058Z,73.27
2018-01-13T06:25:29.715Z,80.57
2018-01-13T06:27:58.795Z,81.17
2018-01-13T06:30:27.690Z,66.80
2018-01-13T06:32:56.755Z,82.07
2018-01-13T06:35:26.079Z,74.13
2018-01-13T06:37:55.157Z,71.70
2018-01-13T06:40:24.271Z,66.70
2018-01-13T06:42:53.334Z,71.70
2018-01-13T06:45:22.671Z,63.90
2018-01-13T06:47:51.766Z,69.60
2018-01-13T06:50:20.615Z,69.10
2018-01-13T06:52:49.742Z,65.07
2018-01-13T06:55:19.048Z,64.57
2018-01-13T06:57:47.870Z,65.43
2018-01-13T07:00:18.061Z,69.07
2018-01-13T07:02:47.310Z,64.50
2018-01-13T07:05:16.442Z,57.50
2018-01-13T07:07:45.465Z,50.73
2018-01-13T07:10:14.851Z,63.63
2018-01-13T07:12:43.661Z,62.63
2018-01-13T07:15:12.861Z,62.00
2018-01-13T07:17:41.787Z,58.10
2018-01-13T07:20:11.022Z,54.27
2018-01-13T07:22:40.527Z,55.70
2018-01-13T07:25:10.041Z,48.73
2018-01-13T07:27:39.944Z,56.77
2018-01-13T07:30:09.026Z,52.03
2018-01-13T07:32:37.933Z,51.07
2018-01-13T07:35:06.981Z,50.87
2018-01-13T07:37:36.305Z,46.53
2018-01-13T07:40:05.279Z,48.33
2018-01-13T07:42:35.182Z,47.97
2018-01-13T07:45:04.573Z,49.50
2018-01-13T07:47:33.421Z,43.53
2018-01-13T07:50:02.619Z,47.03
2018-01-13T07:52:32.018Z,41.60
2018-01-13T07:55:01.188Z,43.53
2018-01-13T07:57:30.388Z,47.67
2018-01-13T07:59:59.792Z,40.03
2018-01-13T08:02:32.698Z,38.77
2018-01-13T08:05:01.966Z,41.43
2018-01-13T08:07:37.178Z,40.13
2018-01-13T08:10:07.891Z,39.23
2018-01-13T08:12:37.098Z,42.23
2018-01-13T08:15:06.116Z,38.10
2018-01-13T08:17:36.813Z,40.40
2018-01-13T08:20:07.446Z,41.90
2018-01-13T08:22:38.206Z,38.70
2018-01-13T08:25:07.378Z,30.17
2018-01-13T08:27:37.150Z,38.40
2018-01-13T08:30:06.869Z,37.60
2018-01-13T08:32:36.361Z,34.77
2018-01-13T08:35:05.376Z,39.93
2018-01-13T08:37:35.859Z,39.00
2018-01-13T08:40:05.982Z,36.23
2018-01-13T08:42:35.574Z,32.80
2018-01-13T08:45:05.350Z,36.53
2018-01-13T08:47:35.699Z,29.40
2018-01-13T08:50:06.078Z,37.30
2018-01-13T08:52:35.273Z,36.40
2018-01-13T08:55:04.866Z,34.83
2018-01-13T08:57:33.900Z,29.50
2018-01-13T09:00:02.993Z,35.20
2018-01-13T09:02:32.222Z,31.67
2018-01-13T09:05:01.938Z,28.97
2018-01-13T09:07:31.739Z,33.40
2018-01-13T09:10:01.020Z,30.40
2018-01-13T09:12:29.802Z,29.70
2018-01-13T09:14:58.952Z,32.03
2018-01-13T09:17:28.138Z,31.83
2018-01-13T09:19:57.153Z,29.40
2018-01-13T09:22:27.567Z,30.20
2018-01-13T09:24:56.614Z,30.10
2018-01-13T09:27:26.734Z,30.33
2018-01-13T09:29:55.823Z,28.80
2018-01-13T09:32:25.091Z,32.73
2018-01-13T09:34:54.213Z,25.00
2018-01-13T09:37:23.315Z,28.80
2018-01-13T09:39:52.289Z,28.03
2018-01-13T09:42:21.051Z,28.37
2018-01-13T09:44:50.044Z,25.73
2018-01-13T09:47:18.995Z,27.93
2018-01-13T09:49:49.550Z,29.70
2018-01-13T09:52:18.616Z,22.07
2018-01-13T09:54:47.761Z,24.33
2018-01-13T09:57:16.902Z,24.17
2018-01-13T09:59:46.561Z,23.00
2018-01-13T10:02:15.923Z,23.13
2018-01-13T10:04:45.485Z,23.00
2018-01-13T10:07:14.493Z,22.80
2018-01-13T10:09:43.811Z,23.17
2018-01-13T10:12:12.917Z,22.53
2018-01-13T10:14:41.684Z,23.40
2018-01-13T10:17:10.583Z,22.83
2018-01-13T10:19:39.735Z,21.40
2018-01-13T10:22:08.639Z,22.23
2018-01-13T10:24:38.016Z,22.20
2018-01-13T10:27:06.870Z,25.50
2018-01-13T10:29:35.755Z,27.57
2018-01-13T10:32:04.728Z,24.93
2018-01-13T10:34:33.668Z,21.83
2018-01-13T10:37:03.026Z,23.03
2018-01-13T10:39:31.927Z,22.50
2018-01-13T10:42:01.414Z,20.00
2018-01-13T10:44:30.535Z,20.63
2018-01-13T10:47:00.234Z,23.23
2018-01-13T10:49:29.210Z,21.67
2018-01-13T10:51:58.495Z,20.90
2018-01-13T10:54:27.729Z,20.50
2018-01-13T10:56:56.631Z,21.90
2018-01-13T10:59:25.471Z,22.70
2018-01-13T11:01:55.833Z,23.47
2018-01-13T11:04:24.932Z,22.07
2018-01-13T11:06:55.255Z,24.07
2018-01-13T11:09:24.766Z,25.10
2018-01-13T11:11:54.468Z,29.83
2018-01-13T11:14:23.522Z,24.53
2018-01-13T11:16:52.881Z,24.20
2018-01-13T11:19:22.343Z,21.17
2018-01-13T11:21:51.410Z,18.43
2018-01-13T11:24:21.005Z,20.40
2018-01-13T11:26:50.143Z,22.47
2018-01-13T11:29:20.202Z,25.13
2018-01-13T11:31:49.679Z,21.67
2018-01-13T11:34:19.666Z,22.63
2018-01-13T11:36:48.626Z,20.50
2018-01-13T11:39:17.997Z,21.60
2018-01-13T11:41:47.170Z,24.23
2018-01-13T11:44:16.754Z,22.17
2018-01-13T11:46:46.691Z,21.90
2018-01-13T11:49:15.766Z,26.20
2018-01-13T11:51:44.887Z,21.87
2018-01-13T11:54:13.909Z,20.00
2018-01-13T11:56:43.305Z,23.97
2018-01-13T11:59:12.404Z,20.60
2018-01-13T12:01:45.937Z,20.30
2018-01-13T12:04:20.773Z,20.80
2018-01-13T12:06:50.460Z,22.37
2018-01-13T12:09:20.042Z,18.10
2018-01-13T12:11:49.497Z,25.53
2018-01-13T12:14:18.382Z,23.17
2018-01-13T12:16:48.044Z,22.90
2018-01-13T12:19:17.388Z,27.90
2018-01-13T12:21:46.739Z,22.20
2018-01-13T12:24:16.048Z,22.30
2018-01-13T12:26:45.976Z,26.43
2018-01-13T12:29:14.961Z,18.83
2018-01-13T12:31:44.762Z,20.10
2018-01-13T12:34:13.694Z,18.90
2018-01-13T12:36:42.926Z,22.27
2018-01-13T12:39:13.756Z,20.57
2018-01-13T12:41:45.366Z,20.20
2018-01-13T12:44:14.807Z,22.30
2018-01-13T12:46:43.873Z,20.30
2018-01-13T12:49:13.042Z,22.67
2018-01-13T12:51:43.163Z,20.03
2018-01-13T12:54:12.834Z,22.50
2018-01-13T12:56:42.140Z,17.30
2018-01-13T12:59:11.881Z,20.43
2018-01-13T13:01:43.921Z,18.73
2018-01-13T13:04:13.719Z,18.90
2018-01-13T13:06:43.066Z,17.33
2018-01-13T13:09:11.930Z,14.43
2018-01-13T13:11:41.073Z,19.00
2018-01-13T13:14:10.709Z,19.43
2018-01-13T13:16:40.155Z,20.00
2018-01-13T13:19:09.615Z,17.90
2018-01-13T13:21:38.813Z,17.33
2018-01-13T13:24:08.159Z,15.97
2018-01-13T13:26:37.089Z,17.27
2018-01-13T13:29:06.644Z,17.90
2018-01-13T13:31:35.706Z,17.67
2018-01-13T13:34:05.017Z,18.83
2018-01-13T13:36:34.558Z,17.50
2018-01-13T13:39:03.475Z,17.20
2018-01-13T13:41:33.980Z,17.23
2018-01-13T13:44:04.376Z,19.90
2018-01-13T13:46:33.809Z,14.50
2018-01-13T13:49:03.748Z,16.23
2018-01-13T13:51:33.090Z,16.17
2018-01-13T13:54:02.408Z,18.47
2018-01-13T13:56:32.078Z,16.40
2018-01-13T13:59:02.490Z,15.97
2018-01-13T14:01:39.534Z,12.50
2018-01-13T14:04:08.383Z,14.40
2018-01-13T14:06:37.719Z,12.47
2018-01-13T14:09:07.020Z,16.20
2018-01-13T14:11:37.556Z,13.30
2018-01-13T14:14:06.650Z,13.67
2018-01-13T14:16:38.150Z,12.23
2018-01-13T14:19:08.075Z,11.20
2018-01-13T14:21:37.399Z,12.33
2018-01-13T14:24:06.374Z,15.90
2018-01-13T14:26:35.802Z,14.23
2018-01-13T14:29:04.638Z,11.17
2018-01-13T14:31:33.795Z,12.13
2018-01-13T14:34:03.197Z,12.87
2018-01-13T14:36:32.285Z,13.10
2018-01-13T14:39:01.257Z,12.27
2018-01-13T14:42:03.359Z,13.47
2018-01-13T14:44:32.648Z,11.40
2018-01-13T14:47:02.044Z,14.13
2018-01-13T14:49:31.335Z,10.00
2018-01-13T14:52:00.533Z,9.80
2018-01-13T14:54:30.150Z,10.70
2018-01-13T14:56:59.371Z,12.30
2018-01-13T14:59:29.719Z,11.60
2018-01-13T15:02:05.548Z,8.60
2018-01-13T15:04:36.375Z,11.80
2018-01-13T15:07:05.624Z,10.90
2018-01-13T15:09:35.123Z,15.43
2018-01-13T15:12:04.584Z,10.87
2018-01-13T15:14:33.532Z,8.60
2018-01-13T15:17:02.761Z,9.20
2018-01-13T15:19:36.722Z,11.70
2018-01-13T15:22:07.330Z,9.43
2018-01-13T15:24:36.454Z,13.90
2018-01-13T15:27:06.633Z,11.50
2018-01-13T15:29:36.111Z,9.40
2018-01-13T15:32:06.807Z,8.97
2018-01-13T15:34:35.846Z,11.20
2018-01-13T15:37:04.911Z,9.67
2018-01-13T15:39:34.035Z,13.70
2018-01-13T15:42:03.767Z,11.90
2018-01-13T15:44:33.791Z,10.37
2018-01-13T15:47:04.171Z,14.40
2018-01-13T15:49:33.505Z,14.90
2018-01-13T15:52:03.216Z,12.70
2018-01-13T15:54:32.977Z,11.07
2018-01-13T15:57:01.757Z,10.77
2018-01-13T15:59:30.879Z,10.77
2018-01-13T16:02:02.158Z,12.60
2018-01-13T16:04:32.171Z,15.17
2018-01-13T16:07:01.382Z,14.00
2018-01-13T16:09:30.512Z,11.83
2018-01-13T16:12:00.658Z,11.83
2018-01-13T16:14:29.793Z,14.30
2018-01-13T16:16:59.384Z,13.43
2018-01-13T16:19:29.783Z,11.73
2018-01-13T16:21:59.326Z,12.33
2018-01-13T16:24:29.057Z,18.03
2018-01-13T16:26:58.479Z,13.87
2018-01-13T16:29:27.610Z,13.57
2018-01-13T16:31:57.376Z,12.10
2018-01-13T16:34:27.550Z,13.37
2018-01-13T16:36:58.132Z,15.93
2018-01-13T16:39:27.087Z,13.10
2018-01-13T16:41:56.148Z,13.77
2018-01-13T16:44:26.905Z,15.27
2018-01-13T16:46:56.124Z,14.87
2018-01-13T16:49:25.922Z,12.60
2018-01-13T16:51:56.731Z,16.00
2018-01-13T16:54:27.666Z,15.03
2018-01-13T16:56:57.299Z,16.43
2018-01-13T16:59:27.039Z,13.67
2018-01-13T17:01:59.273Z,18.17
2018-01-13T17:04:33.352Z,17.50
2018-01-13T17:07:02.898Z,17.27
2018-01-13T17:09:32.192Z,18.80
2018-01-13T17:12:02.119Z,17.13
2018-01-13T17:14:31.013Z,19.43
2018-01-13T17:17:00.299Z,18.33
2018-01-13T17:19:29.975Z,14.70
2018-01-13T17:21:59.496Z,21.60
2018-01-13T17:24:28.702Z,20.43
2018-01-13T17:26:58.326Z,15.40
2018-01-13T17:29:28.414Z,21.20
2018-01-13T17:31:58.162Z,16.20
2018-01-13T17:34:30.449Z,17.33
2018-01-13T17:37:00.811Z,17.30
2018-01-13T17:39:30.282Z,15.97
2018-01-13T17:42:00.407Z,17.00
2018-01-13T17:44:32.315Z,18.13
2018-01-13T17:47:02.387Z,17.50
2018-01-13T17:49:31.736Z,20.50
2018-01-13T17:52:01.226Z,16.87
2018-01-13T17:54:31.166Z,20.53
2018-01-13T17:57:01.136Z,18.30
2018-01-13T17:59:29.996Z,14.77
2018-01-13T18:02:02.590Z,14.30
2018-01-13T18:04:32.251Z,16.00
2018-01-13T18:07:01.739Z,17.03
2018-01-13T18:09:30.745Z,13.53
2018-01-13T18:12:00.451Z,12.20
2018-01-13T18:14:31.550Z,17.90
2018-01-13T18:17:03.610Z,16.13
2018-01-13T18:19:33.069Z,19.73
2018-01-13T18:22:03.149Z,15.17
2018-01-13T18:24:32.839Z,15.00
2018-01-13T18:27:02.624Z,13.97
2018-01-13T18:29:32.158Z,12.10
2018-01-13T18:32:01.481Z,17.53
2018-01-13T18:34:30.445Z,13.47
2018-01-13T18:37:00.892Z,15.73
2018-01-13T18:39:30.561Z,16.03
2018-01-13T18:42:00.230Z,13.77
2018-01-13T18:44:30.363Z,14.23
2018-01-13T18:47:00.842Z,15.00
2018-01-13T18:49:30.694Z,15.47
2018-01-13T18:52:01.821Z,15.40
2018-01-13T18:54:32.150Z,18.00
2018-01-13T18:57:02.563Z,19.10
2018-01-13T18:59:32.066Z,17.53
2018-01-13T19:02:06.207Z,15.17
2018-01-13T19:04:38.840Z,14.30
2018-01-13T19:07:09.201Z,13.30
2018-01-13T19:09:39.343Z,10.57
2018-01-13T19:12:10.510Z,12.87
2018-01-13T19:14:43.995Z,14.53
2018-01-13T19:17:14.632Z,15.20
2018-01-13T19:19:44.904Z,15.10
2018-01-13T19:22:13.914Z,12.67
2018-01-13T19:24:44.255Z,14.20
2018-01-13T19:27:15.261Z,12.73
2018-01-13T19:29:45.201Z,14.57
2018-01-13T19:32:15.144Z,12.47
2018-01-13T19:34:45.655Z,13.53
2018-01-13T19:37:16.054Z,13.60
2018-01-13T19:39:47.464Z,16.27
2018-01-13T19:42:18.568Z,14.70
2018-01-13T19:44:51.082Z,14.67
2018-01-13T19:47:21.905Z,14.67
2018-01-13T19:49:53.106Z,16.57
2018-01-13T19:52:24.216Z,16.13
2018-01-13T19:54:54.740Z,17.47
2018-01-13T19:57:26.537Z,14.83
2018-01-13T19:59:58.227Z,15.80
2018-01-13T20:02:30.829Z,17.97
2018-01-13T20:05:05.011Z,17.03
2018-01-13T20:07:35.534Z,16.90
2018-01-13T20:10:07.459Z,17.80
2018-01-13T20:12:41.148Z,14.83
2018-01-13T20:15:14.828Z,15.33
2018-01-13T20:17:48.218Z,16.73
2018-01-13T20:20:21.681Z,16.93
2018-01-13T20:22:52.598Z,18.43
2018-01-13T20:25:23.836Z,14.80
2018-01-13T20:27:54.596Z,17.70
2018-01-13T20:30:25.342Z,16.17
2018-01-13T20:32:56.739Z,17.03
2018-01-13T20:35:28.367Z,19.43
2018-01-13T20:38:00.557Z,17.20
2018-01-13T20:40:32.771Z,14.47
2018-01-13T20:43:04.087Z,17.07
2018-01-13T20:45:39.299Z,19.27
2018-01-13T20:55:00.397Z,15.27
2018-01-13T20:57:30.713Z,16.93
2018-01-13T21:00:00.092Z,17.47
2018-01-13T21:02:35.036Z,16.43
2018-01-13T21:05:06.065Z,15.80
2018-01-13T21:07:38.720Z,17.67
2018-01-13T21:10:09.549Z,20.77
2018-01-13T21:12:43.013Z,19.33
2018-01-13T21:15:13.406Z,24.90
2018-01-13T21:17:43.982Z,17.63
2018-01-13T21:20:14.793Z,21.53
2018-01-13T21:22:45.375Z,29.03
2018-01-13T21:25:16.887Z,20.00
2018-01-13T21:27:46.830Z,18.23
2018-01-13T21:30:16.880Z,17.37
2018-01-13T21:32:50.836Z,23.00
2018-01-13T21:35:26.789Z,21.63
2018-01-13T21:38:01.172Z,17.50
2018-01-13T21:40:39.124Z,22.40
2018-01-13T21:43:11.135Z,18.40
2018-01-13T21:45:46.713Z,17.90
2018-01-13T21:48:21.578Z,18.93
2018-01-13T21:50:55.118Z,20.70
2018-01-13T21:53:30.093Z,18.33
2018-01-13T21:56:01.547Z,20.63
2018-01-13T21:58:32.729Z,17.87
2018-01-13T22:01:06.723Z,19.90
2018-01-13T22:03:39.609Z,21.83
2018-01-13T22:06:12.721Z,18.40
2018-01-13T22:08:42.931Z,24.37
2018-01-13T22:11:12.124Z,19.30
2018-01-13T22:13:42.872Z,19.47
2018-01-13T22:16:15.219Z,19.83
2018-01-13T22:18:45.672Z,19.77
2018-01-13T22:21:15.131Z,19.50
2018-01-13T22:23:46.872Z,18.17
2018-01-13T22:26:18.617Z,21.20
2018-01-13T22:28:50.035Z,21.43
2018-01-13T22:31:23.031Z,20.87
2018-01-13T22:36:47.793Z,20.73
2018-01-13T22:39:24.588Z,20.60
2018-01-13T22:41:54.961Z,24.43
2018-01-13T22:44:24.154Z,22.80
2018-01-13T22:46:55.888Z,23.10
2018-01-13T22:49:25.719Z,21.23
2018-01-13T22:51:55.327Z,23.50
2018-01-13T22:54:25.813Z,22.53
2018-01-13T22:56:58.425Z,23.47
2018-01-13T22:59:35.399Z,20.17
2018-01-13T23:02:08.018Z,26.37
2018-01-13T23:04:41.519Z,21.93
2018-01-13T23:07:14.429Z,22.00
2018-01-13T23:09:46.267Z,24.57
2018-01-13T23:12:17.627Z,24.30
2018-01-13T23:14:46.954Z,22.47
2018-01-13T23:17:16.531Z,20.80
2018-01-13T23:19:47.301Z,22.50
2018-01-13T23:22:16.224Z,23.30
2018-01-13T23:24:47.403Z,22.33
2018-01-13T23:27:22.766Z,17.33
2018-01-13T23:29:54.800Z,23.37
2018-01-13T23:32:25.994Z,21.27
2018-01-13T23:34:55.602Z,25.10
2018-01-13T23:37:25.205Z,25.57
2018-01-13T23:39:54.194Z,20.53
2018-01-13T23:42:23.537Z,24.30
2018-01-13T23:44:53.084Z,21.40
2018-01-13T23:47:21.937Z,22.67
2018-01-13T23:49:53.019Z,24.07
2018-01-13T23:52:25.308Z,22.47
2018-01-13T23:54:55.307Z,24.17
2018-01-13T23:57:24.371Z,26.97
2018-01-13T23:59:53.496Z,26.23
